Portada
METAR-TAF:

METAR-TAF

Aeroports :

Tumbes, Perú

latitud: 03-33S, longitud: 080-24W, altitud: 25 m

Observació

L'informe es va fer fa 59 minuts, a les 13:00 UTC
Vent 3 kt del Sud-Est
Temperatura 22°C
Humitat 83%
Pressió 1011 hPa
Visibilitat 10 km o més
Núvols disperses a una alçada de 1300 ft

METAR: SPME 211300Z 13003KT 9999 SCT013 22/19 Q1011 RMK BIRD HAZARD RWY 32/14 PP000

Hora: 08:59 (13:59 UTC)

Pronòstic

L'informe es va fer fa 3 hores i 29 minuts, a les 10:30 UTC
Pronòstic vàlid del 21 a les 12 UTC al 22 a les 12 UTC
Vent 5 kt del Nord-Oest
Visibilitat 10 km o més
Escasses núvols a una alçada de 1200 ft
Núvols disperses a una alçada de 2000 ft
Temporalment
l' 21 a les 12 UTC al 21 a les 14 UTC
Cel ennuvolat a una alçada de 1200 ft
Evolucionant progressivament
l' 21 a les 23 UTC al 22 a les 01 UTC
Cel ennuvolat a una alçada de 1400 ft

TAF: SPME 211030Z 2112/2212 32005KT 9999 FEW012 SCT020 TX26/2119Z TN19/2211Z TEMPO 2112/2114 BKN012 BECMG 2123/2201 BKN014

Observacions i pronòstics meteorològics de més de 4000 aeroports (METAR i TAF).

Les estacions disponibles són els punts grocs i vermells al mapa.

Posi el ratolí al punt desitjat per veure el nom de l'estació.

Feu clic per veure les observacions i els pronòstics meteorològics.

Per canviar el mapa: feu clic els botons verds amb una creu de color negre per apropar; al botó verd amb un guió per allunyar la imatge; o en les fletxes verdes per a mapes adjacents.


METAR-TAF: